sensor_id;sensor_type;location;lat;lon;timestamp;P1;durP1;ratioP1;P2;durP2;ratioP2
68473;SDS011;55461;52.066;5.194;2022-12-20T00:00:09;7.6;;;4.61;;
68473;SDS011;55461;52.066;5.194;2022-12-20T00:01:45;7.4;;;4.91;;
68473;SDS011;55461;52.066;5.194;2022-12-20T00:03:22;6.1;;;4.8;;
68473;SDS011;55461;52.066;5.194;2022-12-20T00:06:34;6.2;;;4.61;;
68473;SDS011;55461;52.066;5.194;2022-12-20T00:08:11;5.6;;;4.5;;
68473;SDS011;55461;52.066;5.194;2022-12-20T00:09:48;6.5;;;4.61;;
68473;SDS011;55461;52.066;5.194;2022-12-20T00:13:01;7.2;;;4.61;;
68473;SDS011;55461;52.066;5.194;2022-12-20T00:14:37;5.5;;;4.2;;
68473;SDS011;55461;52.066;5.194;2022-12-20T00:16:14;6.6;;;4.5;;
68473;SDS011;55461;52.066;5.194;2022-12-20T00:19:29;7.0;;;4.3;;
68473;SDS011;55461;52.066;5.194;2022-12-20T00:21:06;7.4;;;4.3;;
68473;SDS011;55461;52.066;5.194;2022-12-20T00:22:44;7.2;;;4.5;;
68473;SDS011;55461;52.066;5.194;2022-12-20T00:24:20;6.7;;;4.3;;
68473;SDS011;55461;52.066;5.194;2022-12-20T00:27:38;6.6;;;4.41;;
68473;SDS011;55461;52.066;5.194;2022-12-20T00:29:14;5.7;;;4.2;;
68473;SDS011;55461;52.066;5.194;2022-12-20T00:30:52;5.9;;;4.0;;
68473;SDS011;55461;52.066;5.194;2022-12-20T00:34:05;6.7;;;4.2;;
68473;SDS011;55461;52.066;5.194;2022-12-20T00:35:41;6.6;;;4.3;;
68473;SDS011;55461;52.066;5.194;2022-12-20T00:37:17;6.6;;;4.2;;
68473;SDS011;55461;52.066;5.194;2022-12-20T00:40:33;6.5;;;4.3;;
68473;SDS011;55461;52.066;5.194;2022-12-20T00:42:10;6.3;;;4.41;;
68473;SDS011;55461;52.066;5.194;2022-12-20T00:43:46;5.8;;;4.1;;
68473;SDS011;55461;52.066;5.194;2022-12-20T00:45:23;6.5;;;4.1;;
68473;SDS011;55461;52.066;5.194;2022-12-20T00:48:35;5.4;;;4.2;;
68473;SDS011;55461;52.066;5.194;2022-12-20T00:50:13;6.1;;;3.8;;
68473;SDS011;55461;52.066;5.194;2022-12-20T00:51:49;7.5;;;3.7;;
68473;SDS011;55461;52.066;5.194;2022-12-20T00:55:02;6.9;;;3.7;;
68473;SDS011;55461;52.066;5.194;2022-12-20T00:56:39;6.4;;;3.9;;
68473;SDS011;55461;52.066;5.194;2022-12-20T00:58:16;5.6;;;3.7;;
68473;SDS011;55461;52.066;5.194;2022-12-20T00:59:52;5.3;;;3.9;;
68473;SDS011;55461;52.066;5.194;2022-12-20T01:03:08;5.8;;;4.0;;
68473;SDS011;55461;52.066;5.194;2022-12-20T01:04:44;5.2;;;3.8;;
68473;SDS011;55461;52.066;5.194;2022-12-20T01:06:21;5.11;;;3.7;;
68473;SDS011;55461;52.066;5.194;2022-12-20T01:09:35;4.91;;;3.5;;
68473;SDS011;55461;52.066;5.194;2022-12-20T01:11:12;6.4;;;4.0;;
68473;SDS011;55461;52.066;5.194;2022-12-20T01:12:51;6.1;;;4.1;;
68473;SDS011;55461;52.066;5.194;2022-12-20T01:16:04;8.4;;;3.7;;
68473;SDS011;55461;52.066;5.194;2022-12-20T01:17:41;5.6;;;3.8;;
68473;SDS011;55461;52.066;5.194;2022-12-20T01:19:17;7.0;;;4.0;;
68473;SDS011;55461;52.066;5.194;2022-12-20T01:20:59;6.7;;;3.8;;
68473;SDS011;55461;52.066;5.194;2022-12-20T01:24:14;6.5;;;3.8;;
68473;SDS011;55461;52.066;5.194;2022-12-20T01:25:52;6.6;;;3.9;;
68473;SDS011;55461;52.066;5.194;2022-12-20T01:27:29;6.7;;;3.9;;
68473;SDS011;55461;52.066;5.194;2022-12-20T01:30:41;5.2;;;3.7;;
68473;SDS011;55461;52.066;5.194;2022-12-20T01:32:17;6.4;;;3.9;;
68473;SDS011;55461;52.066;5.194;2022-12-20T01:33:53;5.3;;;3.8;;
68473;SDS011;55461;52.066;5.194;2022-12-20T01:35:29;5.8;;;3.8;;
68473;SDS011;55461;52.066;5.194;2022-12-20T01:38:42;7.5;;;4.3;;
68473;SDS011;55461;52.066;5.194;2022-12-20T01:40:19;6.8;;;4.3;;
68473;SDS011;55461;52.066;5.194;2022-12-20T01:41:55;7.5;;;4.5;;
68473;SDS011;55461;52.066;5.194;2022-12-20T01:45:27;4.61;;;3.8;;
68473;SDS011;55461;52.066;5.194;2022-12-20T01:47:05;6.2;;;4.1;;
68473;SDS011;55461;52.066;5.194;2022-12-20T01:48:41;6.4;;;4.5;;
68473;SDS011;55461;52.066;5.194;2022-12-20T01:50:23;7.0;;;4.5;;
68473;SDS011;55461;52.066;5.194;2022-12-20T01:53:41;6.6;;;4.5;;
68473;SDS011;55461;52.066;5.194;2022-12-20T01:55:18;7.0;;;4.5;;
68473;SDS011;55461;52.066;5.194;2022-12-20T01:56:59;6.0;;;4.3;;
68473;SDS011;55461;52.066;5.194;2022-12-20T01:58:39;6.1;;;4.3;;
68473;SDS011;55461;52.066;5.194;2022-12-20T02:01:55;6.7;;;4.41;;
68473;SDS011;55461;52.066;5.194;2022-12-20T02:03:34;5.9;;;4.41;;
68473;SDS011;55461;52.066;5.194;2022-12-20T02:05:10;7.6;;;4.7;;
68473;SDS011;55461;52.066;5.194;2022-12-20T02:06:47;6.1;;;4.2;;
68473;SDS011;55461;52.066;5.194;2022-12-20T02:10:00;7.6;;;4.41;;
68473;SDS011;55461;52.066;5.194;2022-12-20T02:11:43;7.1;;;4.5;;
68473;SDS011;55461;52.066;5.194;2022-12-20T02:13:41;5.6;;;4.3;;
68473;SDS011;55461;52.066;5.194;2022-12-20T02:15:29;6.6;;;4.2;;
68473;SDS011;55461;52.066;5.194;2022-12-20T02:17:18;6.1;;;4.3;;
68473;SDS011;55461;52.066;5.194;2022-12-20T02:21:16;6.2;;;4.41;;
68473;SDS011;55461;52.066;5.194;2022-12-20T02:23:11;8.6;;;4.5;;
68473;SDS011;55461;52.066;5.194;2022-12-20T02:25:37;5.8;;;4.2;;
68473;SDS011;55461;52.066;5.194;2022-12-20T02:27:30;6.2;;;4.3;;
68473;SDS011;55461;52.066;5.194;2022-12-20T02:30:00;7.6;;;4.41;;
68473;SDS011;55461;52.066;5.194;2022-12-20T02:31:46;6.8;;;4.5;;
68473;SDS011;55461;52.066;5.194;2022-12-20T02:33:30;6.0;;;4.5;;
68473;SDS011;55461;52.066;5.194;2022-12-20T02:35:07;6.8;;;4.41;;
68473;SDS011;55461;52.066;5.194;2022-12-20T02:36:45;6.0;;;4.3;;
68473;SDS011;55461;52.066;5.194;2022-12-20T02:38:24;6.2;;;4.8;;
68473;SDS011;55461;52.066;5.194;2022-12-20T02:41:44;6.2;;;4.41;;
68473;SDS011;55461;52.066;5.194;2022-12-20T02:43:26;7.2;;;4.3;;
68473;SDS011;55461;52.066;5.194;2022-12-20T02:45:05;7.6;;;4.5;;
68473;SDS011;55461;52.066;5.194;2022-12-20T02:46:46;7.8;;;4.7;;
68473;SDS011;55461;52.066;5.194;2022-12-20T02:50:05;8.1;;;4.7;;
68473;SDS011;55461;52.066;5.194;2022-12-20T02:51:46;6.3;;;4.41;;
68473;SDS011;55461;52.066;5.194;2022-12-20T02:53:25;6.3;;;4.3;;
68473;SDS011;55461;52.066;5.194;2022-12-20T02:55:02;6.5;;;4.41;;
68473;SDS011;55461;52.066;5.194;2022-12-20T02:58:22;6.6;;;4.3;;
68473;SDS011;55461;52.066;5.194;2022-12-20T03:00:05;7.2;;;4.3;;
68473;SDS011;55461;52.066;5.194;2022-12-20T03:01:46;5.5;;;4.1;;
68473;SDS011;55461;52.066;5.194;2022-12-20T03:03:26;7.0;;;4.3;;
68473;SDS011;55461;52.066;5.194;2022-12-20T03:06:54;5.7;;;4.3;;
68473;SDS011;55461;52.066;5.194;2022-12-20T03:08:31;7.1;;;4.41;;
68473;SDS011;55461;52.066;5.194;2022-12-20T03:10:09;7.8;;;4.5;;
68473;SDS011;55461;52.066;5.194;2022-12-20T03:11:46;6.2;;;4.41;;
68473;SDS011;55461;52.066;5.194;2022-12-20T03:15:00;7.0;;;4.5;;
68473;SDS011;55461;52.066;5.194;2022-12-20T03:16:36;7.1;;;4.41;;
68473;SDS011;55461;52.066;5.194;2022-12-20T03:18:12;5.9;;;4.3;;
68473;SDS011;55461;52.066;5.194;2022-12-20T03:21:24;8.1;;;4.61;;
68473;SDS011;55461;52.066;5.194;2022-12-20T03:23:00;5.5;;;4.3;;
68473;SDS011;55461;52.066;5.194;2022-12-20T03:24:37;6.0;;;4.5;;
68473;SDS011;55461;52.066;5.194;2022-12-20T03:27:49;6.3;;;4.2;;
68473;SDS011;55461;52.066;5.194;2022-12-20T03:29:25;6.4;;;4.2;;
68473;SDS011;55461;52.066;5.194;2022-12-20T03:31:01;6.4;;;4.0;;
68473;SDS011;55461;52.066;5.194;2022-12-20T03:32:38;8.1;;;4.5;;
68473;SDS011;55461;52.066;5.194;2022-12-20T03:35:50;5.4;;;4.0;;
68473;SDS011;55461;52.066;5.194;2022-12-20T03:37:26;6.4;;;4.5;;
68473;SDS011;55461;52.066;5.194;2022-12-20T03:39:03;6.0;;;4.3;;
68473;SDS011;55461;52.066;5.194;2022-12-20T03:42:16;8.2;;;4.41;;
68473;SDS011;55461;52.066;5.194;2022-12-20T03:43:52;6.3;;;4.1;;
68473;SDS011;55461;52.066;5.194;2022-12-20T03:45:29;7.0;;;4.41;;
68473;SDS011;55461;52.066;5.194;2022-12-20T03:48:41;6.6;;;4.61;;
68473;SDS011;55461;52.066;5.194;2022-12-20T03:50:17;6.2;;;4.0;;
68473;SDS011;55461;52.066;5.194;2022-12-20T03:51:53;8.1;;;4.3;;
68473;SDS011;55461;52.066;5.194;2022-12-20T03:53:29;6.2;;;4.2;;
68473;SDS011;55461;52.066;5.194;2022-12-20T03:56:44;7.5;;;4.2;;
68473;SDS011;55461;52.066;5.194;2022-12-20T03:58:20;4.7;;;4.0;;
68473;SDS011;55461;52.066;5.194;2022-12-20T03:59:56;5.7;;;3.7;;
68473;SDS011;55461;52.066;5.194;2022-12-20T04:03:08;7.1;;;3.6;;
68473;SDS011;55461;52.066;5.194;2022-12-20T04:04:46;5.6;;;4.0;;
68473;SDS011;55461;52.066;5.194;2022-12-20T04:06:22;6.1;;;4.2;;
68473;SDS011;55461;52.066;5.194;2022-12-20T04:09:34;5.9;;;4.0;;
68473;SDS011;55461;52.066;5.194;2022-12-20T04:11:11;7.6;;;3.8;;
68473;SDS011;55461;52.066;5.194;2022-12-20T04:12:48;6.6;;;4.1;;
68473;SDS011;55461;52.066;5.194;2022-12-20T04:14:24;5.3;;;3.8;;
68473;SDS011;55461;52.066;5.194;2022-12-20T04:17:38;5.4;;;3.8;;
68473;SDS011;55461;52.066;5.194;2022-12-20T04:19:15;5.2;;;3.8;;
68473;SDS011;55461;52.066;5.194;2022-12-20T04:20:51;6.9;;;4.0;;
68473;SDS011;55461;52.066;5.194;2022-12-20T04:24:05;6.7;;;4.2;;
68473;SDS011;55461;52.066;5.194;2022-12-20T04:25:41;5.6;;;3.9;;
68473;SDS011;55461;52.066;5.194;2022-12-20T04:27:18;5.0;;;3.7;;
68473;SDS011;55461;52.066;5.194;2022-12-20T04:30:31;6.4;;;4.2;;
68473;SDS011;55461;52.066;5.194;2022-12-20T04:32:07;6.8;;;4.1;;
68473;SDS011;55461;52.066;5.194;2022-12-20T04:33:44;6.2;;;4.0;;
68473;SDS011;55461;52.066;5.194;2022-12-20T04:35:21;6.8;;;3.9;;
68473;SDS011;55461;52.066;5.194;2022-12-20T04:38:33;6.3;;;3.8;;
68473;SDS011;55461;52.066;5.194;2022-12-20T04:40:11;5.8;;;3.9;;
68473;SDS011;55461;52.066;5.194;2022-12-20T04:41:48;5.5;;;3.6;;
68473;SDS011;55461;52.066;5.194;2022-12-20T04:45:01;6.9;;;4.0;;
68473;SDS011;55461;52.066;5.194;2022-12-20T04:46:37;6.5;;;4.1;;
68473;SDS011;55461;52.066;5.194;2022-12-20T04:48:14;4.41;;;3.7;;
68473;SDS011;55461;52.066;5.194;2022-12-20T04:51:27;5.5;;;3.8;;
68473;SDS011;55461;52.066;5.194;2022-12-20T04:53:03;5.6;;;3.8;;
68473;SDS011;55461;52.066;5.194;2022-12-20T04:54:39;5.3;;;3.9;;
68473;SDS011;55461;52.066;5.194;2022-12-20T04:56:16;5.6;;;4.1;;
68473;SDS011;55461;52.066;5.194;2022-12-20T04:59:30;6.5;;;4.1;;
68473;SDS011;55461;52.066;5.194;2022-12-20T05:01:06;8.31;;;4.41;;
68473;SDS011;55461;52.066;5.194;2022-12-20T05:02:43;7.0;;;4.3;;
68473;SDS011;55461;52.066;5.194;2022-12-20T05:05:55;5.9;;;4.0;;
68473;SDS011;55461;52.066;5.194;2022-12-20T05:07:31;6.1;;;4.5;;
68473;SDS011;55461;52.066;5.194;2022-12-20T05:09:07;7.0;;;4.61;;
68473;SDS011;55461;52.066;5.194;2022-12-20T05:12:20;7.1;;;4.41;;
68473;SDS011;55461;52.066;5.194;2022-12-20T05:13:56;6.6;;;4.5;;
68473;SDS011;55461;52.066;5.194;2022-12-20T05:15:33;6.4;;;4.0;;
68473;SDS011;55461;52.066;5.194;2022-12-20T05:17:10;5.8;;;4.3;;
68473;SDS011;55461;52.066;5.194;2022-12-20T05:20:22;6.6;;;4.3;;
68473;SDS011;55461;52.066;5.194;2022-12-20T05:21:58;6.2;;;4.41;;
68473;SDS011;55461;52.066;5.194;2022-12-20T05:23:35;5.9;;;4.1;;
68473;SDS011;55461;52.066;5.194;2022-12-20T05:26:49;6.8;;;4.3;;
68473;SDS011;55461;52.066;5.194;2022-12-20T05:28:25;6.2;;;4.2;;
68473;SDS011;55461;52.066;5.194;2022-12-20T05:30:02;8.81;;;4.61;;
68473;SDS011;55461;52.066;5.194;2022-12-20T05:33:15;6.9;;;4.5;;
68473;SDS011;55461;52.066;5.194;2022-12-20T05:34:51;8.0;;;4.3;;
68473;SDS011;55461;52.066;5.194;2022-12-20T05:36:27;6.4;;;4.2;;
68473;SDS011;55461;52.066;5.194;2022-12-20T05:39:40;8.1;;;4.41;;
68473;SDS011;55461;52.066;5.194;2022-12-20T05:41:16;6.8;;;4.1;;
68473;SDS011;55461;52.066;5.194;2022-12-20T05:42:52;9.0;;;4.5;;
68473;SDS011;55461;52.066;5.194;2022-12-20T05:46:06;7.0;;;4.1;;
68473;SDS011;55461;52.066;5.194;2022-12-20T05:47:42;6.3;;;4.2;;
68473;SDS011;55461;52.066;5.194;2022-12-20T05:49:19;6.1;;;4.41;;
68473;SDS011;55461;52.066;5.194;2022-12-20T05:50:56;7.7;;;4.3;;
68473;SDS011;55461;52.066;5.194;2022-12-20T05:54:08;7.2;;;4.3;;
68473;SDS011;55461;52.066;5.194;2022-12-20T05:55:46;6.6;;;4.41;;
68473;SDS011;55461;52.066;5.194;2022-12-20T05:57:24;6.3;;;4.2;;
68473;SDS011;55461;52.066;5.194;2022-12-20T05:59:00;7.3;;;4.3;;
68473;SDS011;55461;52.066;5.194;2022-12-20T06:02:12;5.8;;;4.1;;
68473;SDS011;55461;52.066;5.194;2022-12-20T06:03:48;6.2;;;4.3;;
68473;SDS011;55461;52.066;5.194;2022-12-20T06:05:25;7.4;;;4.2;;
68473;SDS011;55461;52.066;5.194;2022-12-20T06:08:37;7.4;;;4.2;;
68473;SDS011;55461;52.066;5.194;2022-12-20T06:10:13;7.8;;;4.41;;
68473;SDS011;55461;52.066;5.194;2022-12-20T06:11:50;7.0;;;4.3;;
68473;SDS011;55461;52.066;5.194;2022-12-20T06:15:02;5.3;;;3.7;;
68473;SDS011;55461;52.066;5.194;2022-12-20T06:16:38;5.11;;;3.8;;
68473;SDS011;55461;52.066;5.194;2022-12-20T06:18:15;6.4;;;3.6;;
68473;SDS011;55461;52.066;5.194;2022-12-20T06:21:27;7.2;;;3.9;;
68473;SDS011;55461;52.066;5.194;2022-12-20T06:24:40;5.8;;;3.6;;
68473;SDS011;55461;52.066;5.194;2022-12-20T06:26:16;6.1;;;3.7;;
68473;SDS011;55461;52.066;5.194;2022-12-20T06:29:28;7.9;;;4.1;;
68473;SDS011;55461;52.066;5.194;2022-12-20T06:31:04;6.6;;;3.8;;
68473;SDS011;55461;52.066;5.194;2022-12-20T06:32:41;9.4;;;5.2;;
68473;SDS011;55461;52.066;5.194;2022-12-20T06:35:54;7.1;;;3.9;;
68473;SDS011;55461;52.066;5.194;2022-12-20T06:37:30;6.3;;;3.5;;
68473;SDS011;55461;52.066;5.194;2022-12-20T06:39:07;5.8;;;3.5;;
68473;SDS011;55461;52.066;5.194;2022-12-20T06:42:19;5.5;;;3.4;;
68473;SDS011;55461;52.066;5.194;2022-12-20T06:43:55;7.2;;;3.7;;
68473;SDS011;55461;52.066;5.194;2022-12-20T06:45:32;6.5;;;3.6;;
68473;SDS011;55461;52.066;5.194;2022-12-20T06:47:08;5.5;;;3.3;;
68473;SDS011;55461;52.066;5.194;2022-12-20T06:50:20;5.8;;;3.5;;
68473;SDS011;55461;52.066;5.194;2022-12-20T06:51:56;5.8;;;3.5;;
68473;SDS011;55461;52.066;5.194;2022-12-20T06:53:33;6.4;;;3.7;;
68473;SDS011;55461;52.066;5.194;2022-12-20T06:56:45;5.0;;;3.4;;
68473;SDS011;55461;52.066;5.194;2022-12-20T06:58:21;5.0;;;3.6;;
68473;SDS011;55461;52.066;5.194;2022-12-20T06:59:57;4.61;;;3.1;;
68473;SDS011;55461;52.066;5.194;2022-12-20T07:03:10;5.2;;;3.3;;
68473;SDS011;55461;52.066;5.194;2022-12-20T07:04:46;6.2;;;3.8;;
68473;SDS011;55461;52.066;5.194;2022-12-20T07:06:22;5.3;;;3.5;;
68473;SDS011;55461;52.066;5.194;2022-12-20T07:09:35;6.2;;;3.7;;
68473;SDS011;55461;52.066;5.194;2022-12-20T07:11:11;8.2;;;3.2;;
68473;SDS011;55461;52.066;5.194;2022-12-20T07:12:47;4.7;;;3.4;;
68473;SDS011;55461;52.066;5.194;2022-12-20T07:14:23;6.1;;;3.4;;
68473;SDS011;55461;52.066;5.194;2022-12-20T07:17:38;6.3;;;3.2;;
68473;SDS011;55461;52.066;5.194;2022-12-20T07:19:14;5.5;;;3.2;;
68473;SDS011;55461;52.066;5.194;2022-12-20T07:20:50;4.91;;;3.3;;
68473;SDS011;55461;52.066;5.194;2022-12-20T07:24:03;4.91;;;3.6;;
68473;SDS011;55461;52.066;5.194;2022-12-20T07:25:40;4.91;;;3.3;;
68473;SDS011;55461;52.066;5.194;2022-12-20T07:27:17;4.2;;;3.0;;
68473;SDS011;55461;52.066;5.194;2022-12-20T07:30:32;5.8;;;3.2;;
68473;SDS011;55461;52.066;5.194;2022-12-20T07:32:08;6.6;;;3.5;;
68473;SDS011;55461;52.066;5.194;2022-12-20T07:33:46;5.2;;;3.2;;
68473;SDS011;55461;52.066;5.194;2022-12-20T07:35:23;3.9;;;2.9;;
68473;SDS011;55461;52.066;5.194;2022-12-20T07:38:35;4.7;;;3.0;;
68473;SDS011;55461;52.066;5.194;2022-12-20T07:40:12;5.11;;;2.9;;
68473;SDS011;55461;52.066;5.194;2022-12-20T07:41:51;6.4;;;2.9;;
68473;SDS011;55461;52.066;5.194;2022-12-20T07:45:05;4.8;;;3.2;;
68473;SDS011;55461;52.066;5.194;2022-12-20T07:46:42;5.5;;;2.9;;
68473;SDS011;55461;52.066;5.194;2022-12-20T07:48:18;5.0;;;2.9;;
68473;SDS011;55461;52.066;5.194;2022-12-20T07:49:54;6.7;;;3.5;;
68473;SDS011;55461;52.066;5.194;2022-12-20T07:53:12;12.7;;;6.7;;
68473;SDS011;55461;52.066;5.194;2022-12-20T07:54:49;8.2;;;4.2;;
68473;SDS011;55461;52.066;5.194;2022-12-20T07:56:33;7.4;;;4.7;;
68473;SDS011;55461;52.066;5.194;2022-12-20T07:59:53;9.9;;;6.0;;
68473;SDS011;55461;52.066;5.194;2022-12-20T08:01:34;5.8;;;4.3;;
68473;SDS011;55461;52.066;5.194;2022-12-20T08:03:11;8.2;;;3.8;;
68473;SDS011;55461;52.066;5.194;2022-12-20T08:04:55;5.11;;;3.1;;
68473;SDS011;55461;52.066;5.194;2022-12-20T08:08:12;4.8;;;3.0;;
68473;SDS011;55461;52.066;5.194;2022-12-20T08:11:26;4.61;;;3.3;;
68473;SDS011;55461;52.066;5.194;2022-12-20T08:13:04;5.4;;;3.3;;
68473;SDS011;55461;52.066;5.194;2022-12-20T08:16:19;6.5;;;3.3;;
68473;SDS011;55461;52.066;5.194;2022-12-20T08:17:55;6.1;;;3.5;;
68473;SDS011;55461;52.066;5.194;2022-12-20T08:19:31;5.3;;;3.3;;
68473;SDS011;55461;52.066;5.194;2022-12-20T08:22:44;6.0;;;3.5;;
68473;SDS011;55461;52.066;5.194;2022-12-20T08:24:20;5.6;;;3.2;;
68473;SDS011;55461;52.066;5.194;2022-12-20T08:25:59;5.6;;;3.1;;
68473;SDS011;55461;52.066;5.194;2022-12-20T08:27:35;6.3;;;3.5;;
68473;SDS011;55461;52.066;5.194;2022-12-20T08:30:48;7.6;;;3.2;;
68473;SDS011;55461;52.066;5.194;2022-12-20T08:32:24;5.11;;;2.9;;
68473;SDS011;55461;52.066;5.194;2022-12-20T08:34:00;4.8;;;3.3;;
68473;SDS011;55461;52.066;5.194;2022-12-20T08:37:15;6.5;;;3.0;;
68473;SDS011;55461;52.066;5.194;2022-12-20T08:38:52;6.5;;;3.1;;
68473;SDS011;55461;52.066;5.194;2022-12-20T08:40:28;4.8;;;3.0;;
68473;SDS011;55461;52.066;5.194;2022-12-20T08:43:41;5.4;;;2.9;;
68473;SDS011;55461;52.066;5.194;2022-12-20T08:45:18;4.91;;;3.0;;
68473;SDS011;55461;52.066;5.194;2022-12-20T08:46:54;5.5;;;2.8;;
68473;SDS011;55461;52.066;5.194;2022-12-20T08:48:31;4.91;;;2.9;;
68473;SDS011;55461;52.066;5.194;2022-12-20T08:51:44;4.2;;;2.6;;
68473;SDS011;55461;52.066;5.194;2022-12-20T08:53:20;6.4;;;3.2;;
68473;SDS011;55461;52.066;5.194;2022-12-20T08:54:56;4.7;;;3.1;;
68473;SDS011;55461;52.066;5.194;2022-12-20T08:58:09;5.5;;;3.1;;
68473;SDS011;55461;52.066;5.194;2022-12-20T08:59:45;5.0;;;2.9;;
68473;SDS011;55461;52.066;5.194;2022-12-20T09:01:21;5.5;;;3.5;;
68473;SDS011;55461;52.066;5.194;2022-12-20T09:04:34;5.5;;;3.5;;
68473;SDS011;55461;52.066;5.194;2022-12-20T09:06:11;5.2;;;3.2;;
68473;SDS011;55461;52.066;5.194;2022-12-20T09:07:49;5.9;;;3.0;;
68473;SDS011;55461;52.066;5.194;2022-12-20T09:09:25;3.9;;;3.1;;
68473;SDS011;55461;52.066;5.194;2022-12-20T09:12:40;6.6;;;2.9;;
68473;SDS011;55461;52.066;5.194;2022-12-20T09:14:17;4.8;;;3.0;;
68473;SDS011;55461;52.066;5.194;2022-12-20T09:15:53;6.3;;;3.2;;
68473;SDS011;55461;52.066;5.194;2022-12-20T09:19:06;4.7;;;3.1;;
68473;SDS011;55461;52.066;5.194;2022-12-20T09:20:42;6.0;;;3.4;;
68473;SDS011;55461;52.066;5.194;2022-12-20T09:22:19;7.2;;;3.5;;
68473;SDS011;55461;52.066;5.194;2022-12-20T09:25:32;5.3;;;3.3;;
68473;SDS011;55461;52.066;5.194;2022-12-20T09:27:09;8.9;;;3.9;;
68473;SDS011;55461;52.066;5.194;2022-12-20T09:28:45;8.31;;;3.6;;
68473;SDS011;55461;52.066;5.194;2022-12-20T09:30:23;7.0;;;3.4;;
68473;SDS011;55461;52.066;5.194;2022-12-20T09:33:36;5.5;;;3.2;;
68473;SDS011;55461;52.066;5.194;2022-12-20T09:35:12;6.3;;;3.5;;
68473;SDS011;55461;52.066;5.194;2022-12-20T09:36:48;7.4;;;3.4;;
68473;SDS011;55461;52.066;5.194;2022-12-20T09:40:02;6.0;;;3.5;;
68473;SDS011;55461;52.066;5.194;2022-12-20T09:41:39;8.5;;;3.9;;
68473;SDS011;55461;52.066;5.194;2022-12-20T09:43:18;7.4;;;3.6;;
68473;SDS011;55461;52.066;5.194;2022-12-20T09:44:58;5.8;;;3.3;;
68473;SDS011;55461;52.066;5.194;2022-12-20T09:48:18;6.0;;;3.4;;
68473;SDS011;55461;52.066;5.194;2022-12-20T09:49:57;6.3;;;3.6;;
68473;SDS011;55461;52.066;5.194;2022-12-20T09:51:40;6.2;;;3.6;;
68473;SDS011;55461;52.066;5.194;2022-12-20T09:53:31;7.8;;;3.7;;
68473;SDS011;55461;52.066;5.194;2022-12-20T09:57:06;8.0;;;5.6;;
68473;SDS011;55461;52.066;5.194;2022-12-20T09:58:58;8.2;;;5.11;;
68473;SDS011;55461;52.066;5.194;2022-12-20T10:00:39;7.8;;;4.8;;
68473;SDS011;55461;52.066;5.194;2022-12-20T10:02:19;6.9;;;3.6;;
68473;SDS011;55461;52.066;5.194;2022-12-20T10:03:58;6.7;;;3.8;;
68473;SDS011;55461;52.066;5.194;2022-12-20T10:39:38;5.5;;;3.9;;
68473;SDS011;55461;52.066;5.194;2022-12-20T10:43:00;6.7;;;4.0;;
68473;SDS011;55461;52.066;5.194;2022-12-20T10:44:38;7.4;;;4.61;;
68473;SDS011;55461;52.066;5.194;2022-12-20T10:46:15;6.4;;;3.9;;
68473;SDS011;55461;52.066;5.194;2022-12-20T10:47:57;6.7;;;4.3;;
68473;SDS011;55461;52.066;5.194;2022-12-20T10:51:16;5.5;;;3.7;;
68473;SDS011;55461;52.066;5.194;2022-12-20T10:53:16;6.4;;;3.9;;
68473;SDS011;55461;52.066;5.194;2022-12-20T10:55:16;6.1;;;3.7;;
68473;SDS011;55461;52.066;5.194;2022-12-20T10:57:14;6.8;;;3.8;;
68473;SDS011;55461;52.066;5.194;2022-12-20T10:58:56;5.9;;;3.8;;
68473;SDS011;55461;52.066;5.194;2022-12-20T11:00:35;7.1;;;4.0;;
68473;SDS011;55461;52.066;5.194;2022-12-20T11:04:20;11.9;;;6.9;;
68473;SDS011;55461;52.066;5.194;2022-12-20T11:07:53;19.2;;;10.4;;
68473;SDS011;55461;52.066;5.194;2022-12-20T11:09:33;17.61;;;9.9;;
68473;SDS011;55461;52.066;5.194;2022-12-20T11:11:13;30.4;;;14.7;;
68473;SDS011;55461;52.066;5.194;2022-12-20T11:12:53;29.5;;;14.1;;
68473;SDS011;55461;52.066;5.194;2022-12-20T11:16:28;24.3;;;11.0;;
68473;SDS011;55461;52.066;5.194;2022-12-20T11:18:26;38.9;;;14.7;;
68473;SDS011;55461;52.066;5.194;2022-12-20T11:20:24;11.9;;;8.31;;
68473;SDS011;55461;52.066;5.194;2022-12-20T11:22:14;6.8;;;4.61;;
68473;SDS011;55461;52.066;5.194;2022-12-20T11:24:06;7.0;;;4.8;;
68473;SDS011;55461;52.066;5.194;2022-12-20T11:25:53;8.6;;;4.41;;
68473;SDS011;55461;52.066;5.194;2022-12-20T11:27:46;8.0;;;4.3;;
68473;SDS011;55461;52.066;5.194;2022-12-20T11:29:41;5.7;;;4.3;;
68473;SDS011;55461;52.066;5.194;2022-12-20T11:31:43;7.5;;;4.5;;
68473;SDS011;55461;52.066;5.194;2022-12-20T11:35:26;5.11;;;4.0;;
68473;SDS011;55461;52.066;5.194;2022-12-20T11:37:16;7.4;;;4.5;;
68473;SDS011;55461;52.066;5.194;2022-12-20T11:38:57;7.3;;;4.2;;
68473;SDS011;55461;52.066;5.194;2022-12-20T11:40:46;8.0;;;4.8;;
68473;SDS011;55461;52.066;5.194;2022-12-20T11:42:34;7.1;;;4.8;;
68473;SDS011;55461;52.066;5.194;2022-12-20T11:44:28;9.4;;;4.61;;
68473;SDS011;55461;52.066;5.194;2022-12-20T11:46:24;6.5;;;4.5;;
68473;SDS011;55461;52.066;5.194;2022-12-20T11:50:33;6.9;;;4.41;;
68473;SDS011;55461;52.066;5.194;2022-12-20T11:52:40;7.6;;;4.61;;
68473;SDS011;55461;52.066;5.194;2022-12-20T11:56:09;7.1;;;4.7;;
68473;SDS011;55461;52.066;5.194;2022-12-20T11:57:53;6.5;;;4.5;;
68473;SDS011;55461;52.066;5.194;2022-12-20T11:59:39;7.0;;;4.41;;
68473;SDS011;55461;52.066;5.194;2022-12-20T12:01:21;7.4;;;4.91;;
68473;SDS011;55461;52.066;5.194;2022-12-20T12:03:08;6.9;;;4.7;;
68473;SDS011;55461;52.066;5.194;2022-12-20T12:06:37;7.6;;;5.0;;
68473;SDS011;55461;52.066;5.194;2022-12-20T12:08:19;6.2;;;5.0;;
68473;SDS011;55461;52.066;5.194;2022-12-20T12:10:08;6.8;;;5.0;;
68473;SDS011;55461;52.066;5.194;2022-12-20T12:11:52;7.9;;;5.3;;
68473;SDS011;55461;52.066;5.194;2022-12-20T12:13:35;6.3;;;5.0;;
68473;SDS011;55461;52.066;5.194;2022-12-20T12:17:05;8.0;;;5.3;;
68473;SDS011;55461;52.066;5.194;2022-12-20T12:18:47;7.1;;;5.3;;
68473;SDS011;55461;52.066;5.194;2022-12-20T12:20:27;7.5;;;5.4;;
68473;SDS011;55461;52.066;5.194;2022-12-20T12:22:18;7.6;;;5.5;;
68473;SDS011;55461;52.066;5.194;2022-12-20T12:24:03;8.81;;;5.7;;
68473;SDS011;55461;52.066;5.194;2022-12-20T12:27:25;7.6;;;5.2;;
68473;SDS011;55461;52.066;5.194;2022-12-20T12:29:05;6.6;;;5.4;;
68473;SDS011;55461;52.066;5.194;2022-12-20T12:30:51;8.5;;;5.6;;
68473;SDS011;55461;52.066;5.194;2022-12-20T12:32:36;8.4;;;5.3;;
68473;SDS011;55461;52.066;5.194;2022-12-20T12:36:14;8.1;;;5.8;;
68473;SDS011;55461;52.066;5.194;2022-12-20T12:39:25;7.7;;;5.5;;
68473;SDS011;55461;52.066;5.194;2022-12-20T12:42:40;6.2;;;5.3;;
68473;SDS011;55461;52.066;5.194;2022-12-20T12:45:31;6.1;;;5.3;;
68473;SDS011;55461;52.066;5.194;2022-12-20T12:47:13;7.9;;;5.6;;
68473;SDS011;55461;52.066;5.194;2022-12-20T12:50:41;6.5;;;5.0;;
68473;SDS011;55461;52.066;5.194;2022-12-20T12:52:26;8.1;;;5.4;;
68473;SDS011;55461;52.066;5.194;2022-12-20T12:54:18;8.1;;;5.4;;
68473;SDS011;55461;52.066;5.194;2022-12-20T12:56:00;7.3;;;5.3;;
68473;SDS011;55461;52.066;5.194;2022-12-20T12:58:25;7.0;;;5.7;;
68473;SDS011;55461;52.066;5.194;2022-12-20T13:00:30;7.4;;;5.5;;
68473;SDS011;55461;52.066;5.194;2022-12-20T13:02:32;7.4;;;5.3;;
68473;SDS011;55461;52.066;5.194;2022-12-20T13:04:51;6.8;;;5.2;;
68473;SDS011;55461;52.066;5.194;2022-12-20T13:07:02;8.0;;;5.5;;
68473;SDS011;55461;52.066;5.194;2022-12-20T13:09:19;7.9;;;6.1;;
68473;SDS011;55461;52.066;5.194;2022-12-20T13:11:11;7.6;;;5.5;;
68473;SDS011;55461;52.066;5.194;2022-12-20T13:13:11;7.4;;;5.4;;
68473;SDS011;55461;52.066;5.194;2022-12-20T13:14:49;6.4;;;5.7;;
68473;SDS011;55461;52.066;5.194;2022-12-20T13:16:28;7.9;;;5.6;;
68473;SDS011;55461;52.066;5.194;2022-12-20T13:19:58;7.5;;;5.5;;
68473;SDS011;55461;52.066;5.194;2022-12-20T13:21:35;6.9;;;5.4;;
68473;SDS011;55461;52.066;5.194;2022-12-20T13:23:13;6.6;;;5.4;;
68473;SDS011;55461;52.066;5.194;2022-12-20T13:24:53;6.8;;;5.8;;
68473;SDS011;55461;52.066;5.194;2022-12-20T13:28:44;6.3;;;5.7;;
68473;SDS011;55461;52.066;5.194;2022-12-20T13:30:25;7.2;;;5.8;;
68473;SDS011;55461;52.066;5.194;2022-12-20T13:32:06;7.0;;;5.3;;
68473;SDS011;55461;52.066;5.194;2022-12-20T13:34:42;6.9;;;5.7;;
68473;SDS011;55461;52.066;5.194;2022-12-20T13:36:32;8.1;;;5.7;;
68473;SDS011;55461;52.066;5.194;2022-12-20T13:39:30;6.7;;;6.0;;
68473;SDS011;55461;52.066;5.194;2022-12-20T13:41:10;8.0;;;6.3;;
68473;SDS011;55461;52.066;5.194;2022-12-20T13:42:59;7.1;;;6.2;;